Eldersville, Pennsylvania
Current Conditions -  °F | °C
As of 10:44 AM on Friday 24 Oct 2014 (Local Time) from KHLG Reporting Station
Haze Haze  
Wind Chill: 45°   Ceiling: Unl
Heat Index: 45°   Visibility: 5mi
Dew Point: 44°   Wind: 0mph
Humidity: 97%   Direction: NA
Pressure: 30.11"   Gusts: NA
Location:  40.35°N, 80.48°W
Report Text: KHLG 241444Z 00000KT 5SM BR SCT002 07/07 A3011 RMK AO2 T00720067
Loading
Personal Weather Stations






























Interactive Weather Map
Tropical Storm Tracking
New forecast layout! Learn more

10-Day Weather Forecast

Advertisements
Track Severe Weather on mobile